Kezdőlap
METAR-TAF:

METAR-TAF

Repülőterek :

Philip Billard Municipal Airport

Topeka, Kansas, Amerikai Egyesült Államok

földrajzi szélesség: 39-04-21N, földrajzi hosszúság: 095-37-33W, magasság: 268 m

Jelenlegi meteorológiai megfigyelések

A jelentés 1 órával és 5 perccel ezelõtt készült, 13:53 UTC
Dél-délkeleti szél 4 kt
Hőmérséklet 28°C
Páratartalom 70%
Légköri nyomás 1018 hPa
Látótávolság: 16.1 km
Derült ég

METAR: KTOP 281353Z 16004KT 10SM CLR 28/22 A3007 RMK AO2 SLP170 T02780222

Idő: 09:58 (14:58 UTC)

Előrejelzés

A jelentés 3 órával és 38 perccel ezelõtt készült, 11:20 UTC
Az előrejelzés 28-én 12 óra UTC és 29-én 12 óra UTC között érvényes
Különbözõ irányokból fújó szél 2 kt
Látótávolság: 10 km
Derült ég
28-én 1600 órától UTC szerint
Déli szél 7 kt
Látótávolság: 10 km
Kevés felhő 5000 lábon

TAF: KTOP 281120Z 2812/2912 VRB02KT P6SM SKC FM281600 18007KT P6SM FEW050

Meteorológiai megfigyelések és előrejelzések több, mint 4000 repülőtéren (METAR és TAF jelentéseket).

A térképen piros és sárga pontok jelzik az elérhető meteorológiai állomásokat.

Mozgassa az egeret a pont fölött, hogy megjelenjen az állomás neve.

Azután kattintson az időjárási megfigyelések és előrejelzések megtekintéséhez.

A térkép megváltoztatása: kattintson a fekete keresztel jelölt zöld gombra ráközelítéshez, a vonallal jelölt zöld gombra távolításhoz, vagy a zöld nyilakra a szomszédos térképek eléréséhez.


METAR-TAF: